sensor_id;sensor_type;location;lat;lon;timestamp;P1;durP1;ratioP1;P2;durP2;ratioP2
2388;SDS011;1205;47.984;7.668;2023-05-07T00:00:33;4.00;;;3.40;;
2388;SDS011;1205;47.984;7.668;2023-05-07T00:02:59;8.53;;;3.80;;
2388;SDS011;1205;47.984;7.668;2023-05-07T00:05:24;6.83;;;3.53;;
2388;SDS011;1205;47.984;7.668;2023-05-07T00:07:50;3.53;;;3.30;;
2388;SDS011;1205;47.984;7.668;2023-05-07T00:10:17;3.47;;;3.00;;
2388;SDS011;1205;47.984;7.668;2023-05-07T00:12:43;4.47;;;2.53;;
2388;SDS011;1205;47.984;7.668;2023-05-07T00:15:09;6.93;;;3.13;;
2388;SDS011;1205;47.984;7.668;2023-05-07T00:17:35;2.87;;;2.57;;
2388;SDS011;1205;47.984;7.668;2023-05-07T00:20:01;9.80;;;3.10;;
2388;SDS011;1205;47.984;7.668;2023-05-07T00:22:28;4.30;;;3.03;;
2388;SDS011;1205;47.984;7.668;2023-05-07T00:24:55;3.67;;;3.33;;
2388;SDS011;1205;47.984;7.668;2023-05-07T00:27:20;5.43;;;3.20;;
2388;SDS011;1205;47.984;7.668;2023-05-07T00:29:46;3.33;;;2.63;;
2388;SDS011;1205;47.984;7.668;2023-05-07T00:32:12;3.27;;;2.53;;
2388;SDS011;1205;47.984;7.668;2023-05-07T00:34:38;3.13;;;2.83;;
2388;SDS011;1205;47.984;7.668;2023-05-07T00:37:04;3.20;;;2.90;;
2388;SDS011;1205;47.984;7.668;2023-05-07T00:39:32;4.23;;;2.53;;
2388;SDS011;1205;47.984;7.668;2023-05-07T00:41:58;6.80;;;2.93;;
2388;SDS011;1205;47.984;7.668;2023-05-07T00:44:23;5.13;;;3.07;;
2388;SDS011;1205;47.984;7.668;2023-05-07T00:46:50;3.13;;;2.83;;
2388;SDS011;1205;47.984;7.668;2023-05-07T00:49:16;10.27;;;3.10;;
2388;SDS011;1205;47.984;7.668;2023-05-07T00:51:42;3.20;;;2.90;;
2388;SDS011;1205;47.984;7.668;2023-05-07T00:54:07;4.00;;;3.13;;
2388;SDS011;1205;47.984;7.668;2023-05-07T00:56:34;4.40;;;3.30;;
2388;SDS011;1205;47.984;7.668;2023-05-07T00:59:00;3.00;;;2.90;;
2388;SDS011;1205;47.984;7.668;2023-05-07T01:01:27;3.73;;;3.10;;
2388;SDS011;1205;47.984;7.668;2023-05-07T01:03:52;11.83;;;4.20;;
2388;SDS011;1205;47.984;7.668;2023-05-07T01:06:18;2.93;;;2.73;;
2388;SDS011;1205;47.984;7.668;2023-05-07T01:08:46;6.13;;;3.87;;
2388;SDS011;1205;47.984;7.668;2023-05-07T01:11:15;3.40;;;2.83;;
2388;SDS011;1205;47.984;7.668;2023-05-07T01:13:41;4.20;;;3.10;;
2388;SDS011;1205;47.984;7.668;2023-05-07T01:16:08;3.70;;;3.40;;
2388;SDS011;1205;47.984;7.668;2023-05-07T01:18:34;4.73;;;3.27;;
2388;SDS011;1205;47.984;7.668;2023-05-07T01:21:00;6.10;;;3.23;;
2388;SDS011;1205;47.984;7.668;2023-05-07T01:23:28;8.77;;;2.90;;
2388;SDS011;1205;47.984;7.668;2023-05-07T01:25:55;3.50;;;3.27;;
2388;SDS011;1205;47.984;7.668;2023-05-07T01:28:21;5.83;;;3.70;;
2388;SDS011;1205;47.984;7.668;2023-05-07T01:30:48;3.50;;;3.20;;
2388;SDS011;1205;47.984;7.668;2023-05-07T01:33:17;6.50;;;3.90;;
2388;SDS011;1205;47.984;7.668;2023-05-07T01:35:47;8.70;;;3.43;;
2388;SDS011;1205;47.984;7.668;2023-05-07T01:38:16;4.53;;;3.60;;
2388;SDS011;1205;47.984;7.668;2023-05-07T01:40:42;7.90;;;3.97;;
2388;SDS011;1205;47.984;7.668;2023-05-07T01:43:08;3.50;;;3.20;;
2388;SDS011;1205;47.984;7.668;2023-05-07T01:45:35;16.10;;;4.30;;
2388;SDS011;1205;47.984;7.668;2023-05-07T01:48:01;4.30;;;4.00;;
2388;SDS011;1205;47.984;7.668;2023-05-07T01:50:28;12.77;;;4.30;;
2388;SDS011;1205;47.984;7.668;2023-05-07T01:52:54;4.30;;;3.90;;
2388;SDS011;1205;47.984;7.668;2023-05-07T01:55:20;6.13;;;4.13;;
2388;SDS011;1205;47.984;7.668;2023-05-07T01:57:46;4.57;;;4.17;;
2388;SDS011;1205;47.984;7.668;2023-05-07T02:00:12;4.10;;;3.80;;
2388;SDS011;1205;47.984;7.668;2023-05-07T02:02:37;4.67;;;3.67;;
2388;SDS011;1205;47.984;7.668;2023-05-07T02:05:03;4.30;;;3.90;;
2388;SDS011;1205;47.984;7.668;2023-05-07T02:07:29;3.90;;;3.60;;
2388;SDS011;1205;47.984;7.668;2023-05-07T02:09:55;4.63;;;4.30;;
2388;SDS011;1205;47.984;7.668;2023-05-07T02:12:20;3.80;;;3.50;;
2388;SDS011;1205;47.984;7.668;2023-05-07T02:14:46;4.40;;;4.00;;
2388;SDS011;1205;47.984;7.668;2023-05-07T02:17:12;3.93;;;3.40;;
2388;SDS011;1205;47.984;7.668;2023-05-07T02:19:37;8.53;;;3.50;;
2388;SDS011;1205;47.984;7.668;2023-05-07T02:22:03;10.23;;;3.50;;
2388;SDS011;1205;47.984;7.668;2023-05-07T02:24:29;4.40;;;3.90;;
2388;SDS011;1205;47.984;7.668;2023-05-07T02:26:54;4.70;;;4.20;;
2388;SDS011;1205;47.984;7.668;2023-05-07T02:29:20;7.87;;;3.93;;
2388;SDS011;1205;47.984;7.668;2023-05-07T02:31:46;4.37;;;3.57;;
2388;SDS011;1205;47.984;7.668;2023-05-07T02:34:15;5.70;;;3.50;;
2388;SDS011;1205;47.984;7.668;2023-05-07T02:36:42;3.67;;;3.33;;
2388;SDS011;1205;47.984;7.668;2023-05-07T02:39:08;4.47;;;3.33;;
2388;SDS011;1205;47.984;7.668;2023-05-07T02:41:33;5.93;;;3.60;;
2388;SDS011;1205;47.984;7.668;2023-05-07T02:43:59;7.73;;;3.00;;
2388;SDS011;1205;47.984;7.668;2023-05-07T02:46:25;4.93;;;3.60;;
2388;SDS011;1205;47.984;7.668;2023-05-07T02:48:50;4.53;;;2.93;;
2388;SDS011;1205;47.984;7.668;2023-05-07T02:51:19;4.17;;;3.83;;
2388;SDS011;1205;47.984;7.668;2023-05-07T02:53:45;4.47;;;3.10;;
2388;SDS011;1205;47.984;7.668;2023-05-07T02:56:11;5.83;;;3.60;;
2388;SDS011;1205;47.984;7.668;2023-05-07T02:58:37;6.40;;;4.43;;
2388;SDS011;1205;47.984;7.668;2023-05-07T03:01:04;4.10;;;3.70;;
2388;SDS011;1205;47.984;7.668;2023-05-07T03:03:30;6.83;;;3.77;;
2388;SDS011;1205;47.984;7.668;2023-05-07T03:05:56;5.53;;;3.60;;
2388;SDS011;1205;47.984;7.668;2023-05-07T03:08:22;4.90;;;4.50;;
2388;SDS011;1205;47.984;7.668;2023-05-07T03:10:48;3.50;;;3.30;;
2388;SDS011;1205;47.984;7.668;2023-05-07T03:13:13;5.20;;;3.90;;
2388;SDS011;1205;47.984;7.668;2023-05-07T03:15:39;4.10;;;3.73;;
2388;SDS011;1205;47.984;7.668;2023-05-07T03:18:05;4.00;;;3.60;;
2388;SDS011;1205;47.984;7.668;2023-05-07T03:20:30;5.40;;;3.90;;
2388;SDS011;1205;47.984;7.668;2023-05-07T03:22:56;3.50;;;3.30;;
2388;SDS011;1205;47.984;7.668;2023-05-07T03:25:22;3.53;;;3.23;;
2388;SDS011;1205;47.984;7.668;2023-05-07T03:27:47;4.73;;;3.10;;
2388;SDS011;1205;47.984;7.668;2023-05-07T03:30:13;4.33;;;4.03;;
2388;SDS011;1205;47.984;7.668;2023-05-07T03:32:39;4.00;;;3.53;;
2388;SDS011;1205;47.984;7.668;2023-05-07T03:35:05;4.83;;;3.43;;
2388;SDS011;1205;47.984;7.668;2023-05-07T03:37:31;12.00;;;4.17;;
2388;SDS011;1205;47.984;7.668;2023-05-07T03:39:56;4.10;;;3.53;;
2388;SDS011;1205;47.984;7.668;2023-05-07T03:42:22;3.80;;;3.60;;
2388;SDS011;1205;47.984;7.668;2023-05-07T03:44:48;7.80;;;3.80;;
2388;SDS011;1205;47.984;7.668;2023-05-07T03:47:13;3.90;;;3.70;;
2388;SDS011;1205;47.984;7.668;2023-05-07T03:49:39;5.80;;;3.47;;
2388;SDS011;1205;47.984;7.668;2023-05-07T03:52:05;4.00;;;3.77;;
2388;SDS011;1205;47.984;7.668;2023-05-07T03:54:31;5.30;;;3.90;;
2388;SDS011;1205;47.984;7.668;2023-05-07T03:56:57;5.57;;;3.70;;
2388;SDS011;1205;47.984;7.668;2023-05-07T03:59:22;7.80;;;3.50;;
2388;SDS011;1205;47.984;7.668;2023-05-07T04:01:48;5.80;;;4.00;;
2388;SDS011;1205;47.984;7.668;2023-05-07T04:04:14;3.40;;;3.20;;
2388;SDS011;1205;47.984;7.668;2023-05-07T04:06:40;3.60;;;3.40;;
2388;SDS011;1205;47.984;7.668;2023-05-07T04:09:06;4.07;;;3.60;;
2388;SDS011;1205;47.984;7.668;2023-05-07T04:11:31;12.20;;;4.40;;
2388;SDS011;1205;47.984;7.668;2023-05-07T04:13:57;6.33;;;4.10;;
2388;SDS011;1205;47.984;7.668;2023-05-07T04:16:22;4.30;;;4.00;;
2388;SDS011;1205;47.984;7.668;2023-05-07T04:18:48;5.90;;;4.10;;
2388;SDS011;1205;47.984;7.668;2023-05-07T04:21:20;6.57;;;4.30;;
2388;SDS011;1205;47.984;7.668;2023-05-07T04:23:46;4.27;;;3.97;;
2388;SDS011;1205;47.984;7.668;2023-05-07T04:26:12;8.03;;;4.60;;
2388;SDS011;1205;47.984;7.668;2023-05-07T04:28:38;6.00;;;4.03;;
2388;SDS011;1205;47.984;7.668;2023-05-07T04:31:05;4.57;;;4.17;;
2388;SDS011;1205;47.984;7.668;2023-05-07T04:33:31;10.87;;;5.00;;
2388;SDS011;1205;47.984;7.668;2023-05-07T04:35:57;7.20;;;5.70;;
2388;SDS011;1205;47.984;7.668;2023-05-07T04:38:27;20.30;;;5.50;;
2388;SDS011;1205;47.984;7.668;2023-05-07T04:40:56;7.80;;;5.53;;
2388;SDS011;1205;47.984;7.668;2023-05-07T04:43:22;6.00;;;5.10;;
2388;SDS011;1205;47.984;7.668;2023-05-07T04:45:49;4.90;;;3.90;;
2388;SDS011;1205;47.984;7.668;2023-05-07T04:48:16;5.70;;;3.90;;
2388;SDS011;1205;47.984;7.668;2023-05-07T04:50:44;6.00;;;4.03;;
2388;SDS011;1205;47.984;7.668;2023-05-07T04:53:12;4.50;;;3.50;;
2388;SDS011;1205;47.984;7.668;2023-05-07T04:55:37;4.60;;;4.20;;
2388;SDS011;1205;47.984;7.668;2023-05-07T04:58:03;4.67;;;4.17;;
2388;SDS011;1205;47.984;7.668;2023-05-07T05:00:29;4.33;;;3.93;;
2388;SDS011;1205;47.984;7.668;2023-05-07T05:02:55;6.80;;;3.70;;
2388;SDS011;1205;47.984;7.668;2023-05-07T05:05:21;8.57;;;4.20;;
2388;SDS011;1205;47.984;7.668;2023-05-07T05:07:46;14.37;;;4.20;;
2388;SDS011;1205;47.984;7.668;2023-05-07T05:10:12;4.63;;;4.20;;
2388;SDS011;1205;47.984;7.668;2023-05-07T05:12:38;4.10;;;3.70;;
2388;SDS011;1205;47.984;7.668;2023-05-07T05:15:04;6.60;;;4.10;;
2388;SDS011;1205;47.984;7.668;2023-05-07T05:17:30;7.03;;;3.57;;
2388;SDS011;1205;47.984;7.668;2023-05-07T05:19:55;4.73;;;3.83;;
2388;SDS011;1205;47.984;7.668;2023-05-07T05:22:21;5.93;;;3.97;;
2388;SDS011;1205;47.984;7.668;2023-05-07T05:24:47;4.53;;;3.77;;
2388;SDS011;1205;47.984;7.668;2023-05-07T05:27:12;4.53;;;3.23;;
2388;SDS011;1205;47.984;7.668;2023-05-07T05:29:38;5.17;;;3.43;;
2388;SDS011;1205;47.984;7.668;2023-05-07T05:32:03;4.77;;;4.37;;
2388;SDS011;1205;47.984;7.668;2023-05-07T05:34:29;4.80;;;4.40;;
2388;SDS011;1205;47.984;7.668;2023-05-07T05:36:54;7.03;;;4.40;;
2388;SDS011;1205;47.984;7.668;2023-05-07T05:39:20;4.37;;;4.07;;
2388;SDS011;1205;47.984;7.668;2023-05-07T05:41:48;5.40;;;4.90;;
2388;SDS011;1205;47.984;7.668;2023-05-07T05:44:13;5.40;;;5.00;;
2388;SDS011;1205;47.984;7.668;2023-05-07T05:46:39;5.00;;;4.50;;
2388;SDS011;1205;47.984;7.668;2023-05-07T05:49:04;6.30;;;4.37;;
2388;SDS011;1205;47.984;7.668;2023-05-07T05:51:30;4.50;;;4.10;;
2388;SDS011;1205;47.984;7.668;2023-05-07T05:53:56;5.20;;;4.50;;
2388;SDS011;1205;47.984;7.668;2023-05-07T05:56:21;9.43;;;4.50;;
2388;SDS011;1205;47.984;7.668;2023-05-07T05:58:47;5.30;;;4.90;;
2388;SDS011;1205;47.984;7.668;2023-05-07T06:01:12;6.70;;;4.80;;
2388;SDS011;1205;47.984;7.668;2023-05-07T06:03:38;4.97;;;4.57;;
2388;SDS011;1205;47.984;7.668;2023-05-07T06:06:04;6.93;;;4.87;;
2388;SDS011;1205;47.984;7.668;2023-05-07T06:08:29;8.73;;;5.30;;
2388;SDS011;1205;47.984;7.668;2023-05-07T06:10:55;7.03;;;6.10;;
2388;SDS011;1205;47.984;7.668;2023-05-07T06:13:21;8.57;;;4.93;;
2388;SDS011;1205;47.984;7.668;2023-05-07T06:15:47;6.03;;;5.00;;
2388;SDS011;1205;47.984;7.668;2023-05-07T06:18:13;7.13;;;5.10;;
2388;SDS011;1205;47.984;7.668;2023-05-07T06:20:39;6.43;;;5.73;;
2388;SDS011;1205;47.984;7.668;2023-05-07T06:23:05;6.00;;;5.40;;
2388;SDS011;1205;47.984;7.668;2023-05-07T06:25:30;6.20;;;5.30;;
2388;SDS011;1205;47.984;7.668;2023-05-07T06:27:56;7.60;;;5.20;;
2388;SDS011;1205;47.984;7.668;2023-05-07T06:30:21;6.23;;;5.63;;
2388;SDS011;1205;47.984;7.668;2023-05-07T06:32:47;8.03;;;5.50;;
2388;SDS011;1205;47.984;7.668;2023-05-07T06:35:12;6.50;;;5.90;;
2388;SDS011;1205;47.984;7.668;2023-05-07T06:37:38;6.67;;;6.07;;
2388;SDS011;1205;47.984;7.668;2023-05-07T06:40:05;6.00;;;5.60;;
2388;SDS011;1205;47.984;7.668;2023-05-07T06:42:31;8.43;;;5.50;;
2388;SDS011;1205;47.984;7.668;2023-05-07T06:44:57;9.23;;;5.83;;
2388;SDS011;1205;47.984;7.668;2023-05-07T06:47:23;14.70;;;6.60;;
2388;SDS011;1205;47.984;7.668;2023-05-07T06:49:48;6.23;;;5.30;;
2388;SDS011;1205;47.984;7.668;2023-05-07T06:52:14;12.57;;;6.40;;
2388;SDS011;1205;47.984;7.668;2023-05-07T06:54:39;8.10;;;7.23;;
2388;SDS011;1205;47.984;7.668;2023-05-07T06:57:05;10.40;;;5.67;;
2388;SDS011;1205;47.984;7.668;2023-05-07T06:59:31;11.20;;;6.03;;
2388;SDS011;1205;47.984;7.668;2023-05-07T07:01:56;8.47;;;6.13;;
2388;SDS011;1205;47.984;7.668;2023-05-07T07:04:22;7.60;;;6.83;;
2388;SDS011;1205;47.984;7.668;2023-05-07T07:06:48;6.33;;;5.80;;
2388;SDS011;1205;47.984;7.668;2023-05-07T07:09:14;8.30;;;6.47;;
2388;SDS011;1205;47.984;7.668;2023-05-07T07:11:40;6.70;;;5.87;;
2388;SDS011;1205;47.984;7.668;2023-05-07T07:14:05;8.80;;;5.53;;
2388;SDS011;1205;47.984;7.668;2023-05-07T07:16:31;5.57;;;5.07;;
2388;SDS011;1205;47.984;7.668;2023-05-07T07:18:57;6.77;;;4.60;;
2388;SDS011;1205;47.984;7.668;2023-05-07T07:21:22;9.13;;;5.20;;
2388;SDS011;1205;47.984;7.668;2023-05-07T07:23:48;6.43;;;5.83;;
2388;SDS011;1205;47.984;7.668;2023-05-07T07:26:13;7.63;;;4.83;;
2388;SDS011;1205;47.984;7.668;2023-05-07T07:28:43;7.83;;;5.10;;
2388;SDS011;1205;47.984;7.668;2023-05-07T07:31:09;6.40;;;5.63;;
2388;SDS011;1205;47.984;7.668;2023-05-07T07:33:34;6.03;;;5.50;;
2388;SDS011;1205;47.984;7.668;2023-05-07T07:36:00;4.80;;;3.97;;
2388;SDS011;1205;47.984;7.668;2023-05-07T07:38:26;8.13;;;5.60;;
2388;SDS011;1205;47.984;7.668;2023-05-07T07:40:51;7.10;;;5.20;;
2388;SDS011;1205;47.984;7.668;2023-05-07T07:43:17;4.90;;;4.50;;
2388;SDS011;1205;47.984;7.668;2023-05-07T07:45:42;7.73;;;5.60;;
2388;SDS011;1205;47.984;7.668;2023-05-07T07:48:08;8.00;;;5.40;;
2388;SDS011;1205;47.984;7.668;2023-05-07T07:50:34;4.97;;;4.57;;
2388;SDS011;1205;47.984;7.668;2023-05-07T07:53:00;5.90;;;5.50;;
2388;SDS011;1205;47.984;7.668;2023-05-07T07:55:25;9.10;;;5.30;;
2388;SDS011;1205;47.984;7.668;2023-05-07T07:57:52;11.27;;;5.50;;
2388;SDS011;1205;47.984;7.668;2023-05-07T08:00:17;5.40;;;4.90;;
2388;SDS011;1205;47.984;7.668;2023-05-07T08:02:43;7.20;;;5.07;;
2388;SDS011;1205;47.984;7.668;2023-05-07T08:05:08;5.40;;;5.00;;
2388;SDS011;1205;47.984;7.668;2023-05-07T08:07:34;6.80;;;6.00;;
2388;SDS011;1205;47.984;7.668;2023-05-07T08:10:00;7.00;;;5.20;;
2388;SDS011;1205;47.984;7.668;2023-05-07T08:12:25;7.83;;;5.57;;
2388;SDS011;1205;47.984;7.668;2023-05-07T08:14:51;8.60;;;4.77;;
2388;SDS011;1205;47.984;7.668;2023-05-07T08:17:17;7.70;;;4.60;;
2388;SDS011;1205;47.984;7.668;2023-05-07T08:19:42;5.00;;;4.50;;
2388;SDS011;1205;47.984;7.668;2023-05-07T08:22:08;6.13;;;5.10;;
2388;SDS011;1205;47.984;7.668;2023-05-07T08:24:35;6.67;;;4.23;;
2388;SDS011;1205;47.984;7.668;2023-05-07T08:27:01;5.33;;;4.97;;
2388;SDS011;1205;47.984;7.668;2023-05-07T08:29:26;5.20;;;4.80;;
2388;SDS011;1205;47.984;7.668;2023-05-07T08:31:52;6.30;;;4.60;;
2388;SDS011;1205;47.984;7.668;2023-05-07T08:34:18;4.90;;;3.90;;
2388;SDS011;1205;47.984;7.668;2023-05-07T08:36:43;5.10;;;4.43;;
2388;SDS011;1205;47.984;7.668;2023-05-07T08:39:11;7.13;;;4.70;;
2388;SDS011;1205;47.984;7.668;2023-05-07T08:41:36;5.83;;;5.33;;
2388;SDS011;1205;47.984;7.668;2023-05-07T08:44:02;6.37;;;5.57;;
2388;SDS011;1205;47.984;7.668;2023-05-07T08:46:31;8.30;;;5.20;;
2388;SDS011;1205;47.984;7.668;2023-05-07T08:48:57;5.67;;;4.80;;
2388;SDS011;1205;47.984;7.668;2023-05-07T08:51:23;4.77;;;4.37;;
2388;SDS011;1205;47.984;7.668;2023-05-07T08:53:49;6.43;;;3.80;;
2388;SDS011;1205;47.984;7.668;2023-05-07T08:56:15;4.57;;;4.10;;
2388;SDS011;1205;47.984;7.668;2023-05-07T08:58:42;4.40;;;3.87;;
2388;SDS011;1205;47.984;7.668;2023-05-07T09:01:14;4.10;;;3.80;;
2388;SDS011;1205;47.984;7.668;2023-05-07T09:03:41;7.60;;;4.20;;
2388;SDS011;1205;47.984;7.668;2023-05-07T09:06:10;5.80;;;4.47;;
2388;SDS011;1205;47.984;7.668;2023-05-07T09:08:35;5.10;;;4.43;;
2388;SDS011;1205;47.984;7.668;2023-05-07T09:11:01;6.23;;;3.83;;
2388;SDS011;1205;47.984;7.668;2023-05-07T09:13:28;5.83;;;3.80;;
2388;SDS011;1205;47.984;7.668;2023-05-07T09:15:54;4.83;;;3.00;;
2388;SDS011;1205;47.984;7.668;2023-05-07T09:18:20;3.27;;;3.07;;
2388;SDS011;1205;47.984;7.668;2023-05-07T09:20:45;5.43;;;4.00;;
2388;SDS011;1205;47.984;7.668;2023-05-07T09:23:11;5.97;;;4.07;;
2388;SDS011;1205;47.984;7.668;2023-05-07T09:25:37;5.70;;;4.17;;
2388;SDS011;1205;47.984;7.668;2023-05-07T09:28:03;5.33;;;4.13;;
2388;SDS011;1205;47.984;7.668;2023-05-07T09:30:31;8.23;;;4.80;;
2388;SDS011;1205;47.984;7.668;2023-05-07T09:32:58;8.50;;;3.63;;
2388;SDS011;1205;47.984;7.668;2023-05-07T09:35:24;3.63;;;3.33;;
2388;SDS011;1205;47.984;7.668;2023-05-07T09:37:56;3.83;;;3.00;;
2388;SDS011;1205;47.984;7.668;2023-05-07T09:40:23;4.23;;;3.00;;
2388;SDS011;1205;47.984;7.668;2023-05-07T09:42:50;4.80;;;3.73;;
2388;SDS011;1205;47.984;7.668;2023-05-07T09:45:21;3.93;;;3.30;;
2388;SDS011;1205;47.984;7.668;2023-05-07T09:47:57;3.00;;;2.73;;
2388;SDS011;1205;47.984;7.668;2023-05-07T09:50:27;5.10;;;3.20;;
2388;SDS011;1205;47.984;7.668;2023-05-07T09:52:55;4.13;;;3.20;;
2388;SDS011;1205;47.984;7.668;2023-05-07T09:55:21;3.47;;;3.17;;
2388;SDS011;1205;47.984;7.668;2023-05-07T09:57:51;4.10;;;2.90;;
2388;SDS011;1205;47.984;7.668;2023-05-07T10:00:22;3.13;;;2.80;;
2388;SDS011;1205;47.984;7.668;2023-05-07T10:02:48;5.20;;;2.77;;
2388;SDS011;1205;47.984;7.668;2023-05-07T10:05:16;7.40;;;2.87;;
2388;SDS011;1205;47.984;7.668;2023-05-07T10:07:46;4.20;;;3.20;;
2388;SDS011;1205;47.984;7.668;2023-05-07T10:10:12;3.60;;;3.30;;
2388;SDS011;1205;47.984;7.668;2023-05-07T10:12:40;3.67;;;3.00;;
2388;SDS011;1205;47.984;7.668;2023-05-07T10:15:07;4.57;;;3.73;;
2388;SDS011;1205;47.984;7.668;2023-05-07T10:17:39;8.20;;;2.73;;
2388;SDS011;1205;47.984;7.668;2023-05-07T10:20:06;3.80;;;3.00;;
2388;SDS011;1205;47.984;7.668;2023-05-07T10:22:33;3.30;;;2.90;;
2388;SDS011;1205;47.984;7.668;2023-05-07T10:25:17;6.50;;;3.40;;
2388;SDS011;1205;47.984;7.668;2023-05-07T10:27:46;7.03;;;3.37;;
2388;SDS011;1205;47.984;7.668;2023-05-07T10:30:35;4.27;;;3.60;;
2388;SDS011;1205;47.984;7.668;2023-05-07T10:33:05;6.83;;;3.80;;
2388;SDS011;1205;47.984;7.668;2023-05-07T10:35:40;7.43;;;3.83;;
2388;SDS011;1205;47.984;7.668;2023-05-07T10:38:08;5.47;;;4.30;;
2388;SDS011;1205;47.984;7.668;2023-05-07T10:40:34;7.43;;;4.03;;
2388;SDS011;1205;47.984;7.668;2023-05-07T10:43:01;13.47;;;4.80;;
2388;SDS011;1205;47.984;7.668;2023-05-07T10:45:30;10.60;;;5.33;;
2388;SDS011;1205;47.984;7.668;2023-05-07T10:50:41;7.97;;;4.30;;
2388;SDS011;1205;47.984;7.668;2023-05-07T10:55:41;5.00;;;4.50;;
2388;SDS011;1205;47.984;7.668;2023-05-07T10:58:27;8.10;;;4.60;;
2388;SDS011;1205;47.984;7.668;2023-05-07T11:01:02;4.73;;;4.37;;
2388;SDS011;1205;47.984;7.668;2023-05-07T11:03:28;6.07;;;3.80;;
2388;SDS011;1205;47.984;7.668;2023-05-07T11:06:08;6.10;;;3.90;;
2388;SDS011;1205;47.984;7.668;2023-05-07T11:08:56;7.13;;;4.00;;
2388;SDS011;1205;47.984;7.668;2023-05-07T11:17:06;5.10;;;3.80;;
2388;SDS011;1205;47.984;7.668;2023-05-07T11:25:04;5.60;;;3.53;;
2388;SDS011;1205;47.984;7.668;2023-05-07T11:27:31;4.70;;;3.77;;
2388;SDS011;1205;47.984;7.668;2023-05-07T11:29:58;7.00;;;4.50;;
2388;SDS011;1205;47.984;7.668;2023-05-07T11:34:56;7.27;;;4.57;;
2388;SDS011;1205;47.984;7.668;2023-05-07T11:37:23;4.70;;;4.30;;
2388;SDS011;1205;47.984;7.668;2023-05-07T11:39:50;5.20;;;4.67;;
2388;SDS011;1205;47.984;7.668;2023-05-07T11:42:29;5.67;;;4.23;;
2388;SDS011;1205;47.984;7.668;2023-05-07T11:44:55;5.50;;;4.00;;
2388;SDS011;1205;47.984;7.668;2023-05-07T11:47:21;4.53;;;3.87;;
2388;SDS011;1205;47.984;7.668;2023-05-07T11:49:56;6.23;;;3.97;;
2388;SDS011;1205;47.984;7.668;2023-05-07T11:52:26;4.73;;;4.10;;
2388;SDS011;1205;47.984;7.668;2023-05-07T11:54:52;6.77;;;3.40;;
2388;SDS011;1205;47.984;7.668;2023-05-07T11:57:25;4.17;;;3.87;;
2388;SDS011;1205;47.984;7.668;2023-05-07T11:59:58;4.33;;;3.93;;
2388;SDS011;1205;47.984;7.668;2023-05-07T12:02:26;5.93;;;4.27;;
2388;SDS011;1205;47.984;7.668;2023-05-07T12:04:53;4.17;;;3.97;;
2388;SDS011;1205;47.984;7.668;2023-05-07T12:07:19;4.87;;;4.30;;
2388;SDS011;1205;47.984;7.668;2023-05-07T12:09:46;5.50;;;3.93;;
2388;SDS011;1205;47.984;7.668;2023-05-07T12:12:12;4.10;;;3.70;;
2388;SDS011;1205;47.984;7.668;2023-05-07T12:14:40;8.30;;;4.17;;
2388;SDS011;1205;47.984;7.668;2023-05-07T12:17:07;5.27;;;4.10;;
2388;SDS011;1205;47.984;7.668;2023-05-07T12:19:34;14.77;;;3.80;;
2388;SDS011;1205;47.984;7.668;2023-05-07T12:22:01;3.60;;;3.30;;
2388;SDS011;1205;47.984;7.668;2023-05-07T12:24:45;3.93;;;3.53;;
2388;SDS011;1205;47.984;7.668;2023-05-07T12:27:13;10.20;;;4.47;;
2388;SDS011;1205;47.984;7.668;2023-05-07T12:29:39;3.77;;;3.47;;
2388;SDS011;1205;47.984;7.668;2023-05-07T12:32:06;4.90;;;3.70;;
2388;SDS011;1205;47.984;7.668;2023-05-07T12:34:31;3.90;;;3.40;;
2388;SDS011;1205;47.984;7.668;2023-05-07T12:36:57;10.13;;;3.23;;
2388;SDS011;1205;47.984;7.668;2023-05-07T12:39:28;5.73;;;3.67;;
2388;SDS011;1205;47.984;7.668;2023-05-07T12:41:54;4.00;;;3.70;;
2388;SDS011;1205;47.984;7.668;2023-05-07T12:44:23;4.17;;;3.80;;
2388;SDS011;1205;47.984;7.668;2023-05-07T12:46:50;4.13;;;3.77;;
2388;SDS011;1205;47.984;7.668;2023-05-07T12:49:16;4.73;;;4.00;;
2388;SDS011;1205;47.984;7.668;2023-05-07T12:51:46;5.53;;;3.63;;
2388;SDS011;1205;47.984;7.668;2023-05-07T12:54:13;4.60;;;4.27;;
2388;SDS011;1205;47.984;7.668;2023-05-07T12:56:39;8.37;;;4.27;;
2388;SDS011;1205;47.984;7.668;2023-05-07T12:59:05;5.70;;;4.00;;
2388;SDS011;1205;47.984;7.668;2023-05-07T13:01:31;5.37;;;4.40;;
2388;SDS011;1205;47.984;7.668;2023-05-07T13:04:00;8.93;;;5.10;;
2388;SDS011;1205;47.984;7.668;2023-05-07T13:06:27;5.03;;;4.60;;
2388;SDS011;1205;47.984;7.668;2023-05-07T13:08:53;4.20;;;3.80;;
2388;SDS011;1205;47.984;7.668;2023-05-07T13:11:19;4.50;;;4.00;;
2388;SDS011;1205;47.984;7.668;2023-05-07T13:13:45;7.90;;;4.07;;
2388;SDS011;1205;47.984;7.668;2023-05-07T13:16:11;5.27;;;3.70;;
2388;SDS011;1205;47.984;7.668;2023-05-07T13:18:37;8.67;;;4.07;;
2388;SDS011;1205;47.984;7.668;2023-05-07T13:21:04;6.10;;;4.17;;
2388;SDS011;1205;47.984;7.668;2023-05-07T13:23:29;4.20;;;3.90;;
2388;SDS011;1205;47.984;7.668;2023-05-07T13:25:55;4.50;;;3.77;;
2388;SDS011;1205;47.984;7.668;2023-05-07T13:28:21;4.83;;;4.30;;
2388;SDS011;1205;47.984;7.668;2023-05-07T13:30:51;8.33;;;4.00;;
2388;SDS011;1205;47.984;7.668;2023-05-07T13:33:17;4.07;;;3.70;;
2388;SDS011;1205;47.984;7.668;2023-05-07T13:35:43;6.73;;;4.50;;
2388;SDS011;1205;47.984;7.668;2023-05-07T13:38:09;7.37;;;4.23;;
2388;SDS011;1205;47.984;7.668;2023-05-07T13:40:35;4.60;;;4.30;;
2388;SDS011;1205;47.984;7.668;2023-05-07T13:43:00;5.23;;;4.27;;
2388;SDS011;1205;47.984;7.668;2023-05-07T13:45:29;3.80;;;3.60;;
2388;SDS011;1205;47.984;7.668;2023-05-07T13:47:55;4.73;;;3.87;;
2388;SDS011;1205;47.984;7.668;2023-05-07T13:50:21;5.97;;;4.40;;
2388;SDS011;1205;47.984;7.668;2023-05-07T13:52:47;5.03;;;4.60;;
2388;SDS011;1205;47.984;7.668;2023-05-07T13:55:19;10.00;;;5.20;;
2388;SDS011;1205;47.984;7.668;2023-05-07T13:57:46;5.40;;;4.63;;
2388;SDS011;1205;47.984;7.668;2023-05-07T14:00:12;3.87;;;3.57;;
2388;SDS011;1205;47.984;7.668;2023-05-07T14:02:38;4.67;;;3.67;;
2388;SDS011;1205;47.984;7.668;2023-05-07T14:05:05;4.60;;;3.73;;
2388;SDS011;1205;47.984;7.668;2023-05-07T14:07:31;3.93;;;3.57;;
2388;SDS011;1205;47.984;7.668;2023-05-07T14:09:56;3.13;;;2.90;;
2388;SDS011;1205;47.984;7.668;2023-05-07T14:12:22;2.77;;;2.50;;
2388;SDS011;1205;47.984;7.668;2023-05-07T14:14:48;3.53;;;2.20;;
2388;SDS011;1205;47.984;7.668;2023-05-07T14:17:15;2.10;;;2.00;;
2388;SDS011;1205;47.984;7.668;2023-05-07T14:19:41;3.00;;;2.17;;
2388;SDS011;1205;47.984;7.668;2023-05-07T14:22:07;2.50;;;2.30;;
2388;SDS011;1205;47.984;7.668;2023-05-07T14:24:33;2.27;;;1.60;;
2388;SDS011;1205;47.984;7.668;2023-05-07T14:26:59;1.90;;;1.90;;
2388;SDS011;1205;47.984;7.668;2023-05-07T14:29:25;2.87;;;1.60;;
2388;SDS011;1205;47.984;7.668;2023-05-07T14:31:50;1.80;;;1.70;;
2388;SDS011;1205;47.984;7.668;2023-05-07T14:34:16;4.23;;;2.40;;
2388;SDS011;1205;47.984;7.668;2023-05-07T14:36:41;2.73;;;1.80;;
2388;SDS011;1205;47.984;7.668;2023-05-07T14:39:08;2.83;;;1.83;;
2388;SDS011;1205;47.984;7.668;2023-05-07T14:41:34;4.03;;;2.10;;
2388;SDS011;1205;47.984;7.668;2023-05-07T14:44:00;4.17;;;1.80;;
2388;SDS011;1205;47.984;7.668;2023-05-07T14:46:26;1.80;;;1.70;;
2388;SDS011;1205;47.984;7.668;2023-05-07T14:48:52;5.90;;;2.40;;
2388;SDS011;1205;47.984;7.668;2023-05-07T14:51:17;2.17;;;2.07;;
2388;SDS011;1205;47.984;7.668;2023-05-07T14:53:43;2.30;;;2.20;;
2388;SDS011;1205;47.984;7.668;2023-05-07T14:56:09;2.07;;;1.90;;
2388;SDS011;1205;47.984;7.668;2023-05-07T14:58:35;2.70;;;2.13;;
2388;SDS011;1205;47.984;7.668;2023-05-07T15:01:01;1.80;;;1.70;;
2388;SDS011;1205;47.984;7.668;2023-05-07T15:03:27;1.90;;;1.77;;
2388;SDS011;1205;47.984;7.668;2023-05-07T15:05:53;1.80;;;1.60;;
2388;SDS011;1205;47.984;7.668;2023-05-07T15:08:18;7.67;;;1.63;;
2388;SDS011;1205;47.984;7.668;2023-05-07T15:10:44;3.00;;;1.70;;
2388;SDS011;1205;47.984;7.668;2023-05-07T15:13:10;1.30;;;1.30;;
2388;SDS011;1205;47.984;7.668;2023-05-07T15:15:38;1.13;;;1.10;;
2388;SDS011;1205;47.984;7.668;2023-05-07T15:18:04;1.47;;;1.10;;
2388;SDS011;1205;47.984;7.668;2023-05-07T15:20:30;1.50;;;1.00;;
2388;SDS011;1205;47.984;7.668;2023-05-07T15:22:55;5.50;;;0.83;;
2388;SDS011;1205;47.984;7.668;2023-05-07T15:25:21;0.70;;;0.67;;
2388;SDS011;1205;47.984;7.668;2023-05-07T15:27:47;2.20;;;0.70;;
2388;SDS011;1205;47.984;7.668;2023-05-07T15:30:13;0.60;;;0.60;;